Manns Harbor, North Carolina
Current Conditions -  °F | °C
As of 6:15 AM on Monday 22 Dec 2014 (Local Time) from KMQI Reporting Station
Drizzle Drizzle  
Wind Chill: 43°   Ceiling: 1500
Heat Index: 49°   Visibility: 10mi
Dew Point: 47°   Wind: 16mph
Humidity: 93%   Direction: 60°ENE
Pressure: 30.12"   Gusts: NA
Location:  35.89°N, 75.76°W
Report Text: KMQI 221115Z AUTO 06014KT 10SM -DZ OVC015 10/09 A3012 RMK AO2 T00950085
Loading
Personal Weather Stations






























Interactive Weather Map New forecast layout! Learn more

10-Day Weather Forecast

Advertisements
Track Severe Weather on mobile